createdAt,value
2022-12-23T00:00:40.787Z,149.32
2022-12-23T00:03:07.694Z,176.65
2022-12-23T00:05:38.418Z,136.68
2022-12-23T00:08:05.385Z,150.15
2022-12-23T00:10:31.895Z,161.75
2022-12-23T00:13:16.749Z,166.45
2022-12-23T00:15:43.240Z,150.02
2022-12-23T00:18:09.712Z,154.80
2022-12-23T00:20:36.138Z,132.73
2022-12-23T00:23:05.613Z,141.18
2022-12-23T00:25:42.517Z,119.50
2022-12-23T00:28:19.294Z,113.82
2022-12-23T00:30:51.729Z,112.28
2022-12-23T00:33:19.866Z,99.28
2022-12-23T00:35:46.873Z,112.55
2022-12-23T00:38:13.750Z,131.98
2022-12-23T00:40:59.316Z,213.90
2022-12-23T00:43:26.002Z,280.02
2022-12-23T00:45:52.534Z,279.88
2022-12-23T00:48:37.667Z,235.10
2022-12-23T00:51:04.253Z,235.55
2022-12-23T00:53:30.732Z,164.50
2022-12-23T00:55:57.210Z,162.82
2022-12-23T00:58:23.660Z,138.13
2022-12-23T01:01:08.938Z,128.90
2022-12-23T01:03:54.188Z,115.43
2022-12-23T01:06:20.654Z,115.93
2022-12-23T01:08:47.130Z,109.20
2022-12-23T01:11:13.645Z,110.28
2022-12-23T01:13:40.290Z,103.68
2022-12-23T01:16:16.865Z,102.47
2022-12-23T01:18:44.371Z,103.50
2022-12-23T01:21:11.311Z,108.13
2022-12-23T01:23:37.976Z,110.28
2022-12-23T01:26:05.708Z,111.28
2022-12-23T01:28:32.424Z,104.43
2022-12-23T01:31:00.127Z,122.63
2022-12-23T01:33:26.606Z,102.88
2022-12-23T01:35:59.007Z,106.95
2022-12-23T01:38:25.435Z,109.88
2022-12-23T01:40:51.902Z,105.57
2022-12-23T01:43:19.502Z,103.47
2022-12-23T01:45:46.446Z,95.60
2022-12-23T01:48:18.516Z,101.38
2022-12-23T01:50:46.981Z,104.35
2022-12-23T01:53:30.673Z,102.75
2022-12-23T01:55:59.608Z,101.93
2022-12-23T01:58:26.034Z,101.20
2022-12-23T02:01:12.659Z,97.10
2022-12-23T02:03:45.125Z,100.57
2022-12-23T02:06:46.866Z,101.85
2022-12-23T02:09:18.120Z,114.33
2022-12-23T02:12:03.015Z,109.40
2022-12-23T02:14:55.802Z,97.63
2022-12-23T02:17:27.594Z,108.05
2022-12-23T02:20:00.065Z,97.70
2022-12-23T02:22:42.822Z,93.30
2022-12-23T02:25:21.168Z,91.40
2022-12-23T02:28:11.865Z,97.50
2022-12-23T02:30:38.327Z,94.65
2022-12-23T02:33:04.748Z,84.43
2022-12-23T02:35:31.235Z,90.20
2022-12-23T02:38:00.398Z,95.35
2022-12-23T02:40:29.729Z,87.20
2022-12-23T02:43:04.969Z,87.10
2022-12-23T02:45:46.564Z,88.68
2022-12-23T02:48:16.578Z,85.28
2022-12-23T02:50:43.749Z,80.70
2022-12-23T02:53:14.419Z,84.35
2022-12-23T02:55:42.000Z,79.50
2022-12-23T02:58:10.484Z,68.45
2022-12-23T03:00:38.504Z,70.78
2022-12-23T03:03:05.020Z,71.70
2022-12-23T03:05:34.288Z,86.18
2022-12-23T03:08:04.935Z,72.95
2022-12-23T03:10:31.400Z,78.00
2022-12-23T03:13:09.938Z,79.03
2022-12-23T03:15:41.437Z,72.22
2022-12-23T03:18:20.929Z,73.05
2022-12-23T03:20:56.537Z,71.38
2022-12-23T03:23:31.411Z,68.35
2022-12-23T03:26:07.376Z,71.53
2022-12-23T03:28:36.360Z,65.43
2022-12-23T03:31:03.942Z,72.07
2022-12-23T03:33:39.620Z,64.72
2022-12-23T03:36:09.827Z,62.03
2022-12-23T03:38:36.893Z,60.03
2022-12-23T03:41:06.625Z,60.78
2022-12-23T03:43:51.629Z,64.90
2022-12-23T03:46:20.769Z,80.97
2022-12-23T03:49:07.532Z,78.47
2022-12-23T03:51:44.817Z,88.13
2022-12-23T03:54:13.574Z,89.68
2022-12-23T03:56:49.551Z,104.20
2022-12-23T03:59:21.449Z,93.32
2022-12-23T04:04:14.450Z,89.50
2022-12-23T04:07:01.174Z,85.63
2022-12-23T04:09:28.244Z,105.40
2022-12-23T04:11:55.464Z,84.25
2022-12-23T04:14:22.565Z,93.03
2022-12-23T04:16:52.882Z,90.65
2022-12-23T04:19:19.378Z,88.38
2022-12-23T04:21:45.884Z,81.63
2022-12-23T04:24:12.358Z,78.88
2022-12-23T04:26:38.775Z,83.28
2022-12-23T04:29:05.363Z,76.80
2022-12-23T04:31:31.954Z,74.00
2022-12-23T04:33:58.490Z,75.60
2022-12-23T04:36:24.939Z,71.40
2022-12-23T04:38:51.370Z,71.22
2022-12-23T04:41:17.828Z,68.10
2022-12-23T04:43:49.230Z,73.75
2022-12-23T04:46:19.291Z,82.80
2022-12-23T04:48:45.779Z,57.13
2022-12-23T04:51:12.223Z,66.80
2022-12-23T04:53:39.161Z,69.43
2022-12-23T04:56:05.657Z,68.05
2022-12-23T04:58:32.133Z,66.18
2022-12-23T05:01:05.857Z,57.85
2022-12-23T05:03:32.396Z,70.78
2022-12-23T05:05:59.010Z,59.67
2022-12-23T05:08:25.490Z,59.25
2022-12-23T05:10:52.279Z,57.55
2022-12-23T05:13:18.790Z,59.38
2022-12-23T05:15:45.715Z,60.00
2022-12-23T05:18:12.308Z,52.55
2022-12-23T05:20:38.842Z,61.83
2022-12-23T05:23:05.269Z,54.75
2022-12-23T05:25:35.635Z,59.92
2022-12-23T05:28:02.434Z,59.30
2022-12-23T05:30:29.519Z,55.03
2022-12-23T05:32:56.912Z,55.10
2022-12-23T05:35:23.937Z,61.03
2022-12-23T05:37:50.716Z,55.55
2022-12-23T05:40:23.148Z,51.47
2022-12-23T05:42:50.355Z,46.42
2022-12-23T05:45:16.917Z,45.53
2022-12-23T05:47:43.334Z,44.85
2022-12-23T05:50:10.003Z,41.97
2022-12-23T05:52:36.494Z,80.38
2022-12-23T05:55:03.182Z,53.17
2022-12-23T05:57:30.336Z,55.97
2022-12-23T05:59:56.786Z,54.95
2022-12-23T06:02:23.363Z,76.25
2022-12-23T06:04:50.080Z,54.95
2022-12-23T06:07:16.576Z,50.50
2022-12-23T06:09:43.064Z,56.85
2022-12-23T06:12:09.508Z,48.67
2022-12-23T06:14:36.010Z,58.00
2022-12-23T06:17:02.572Z,51.45
2022-12-23T06:19:29.040Z,48.55
2022-12-23T06:21:55.532Z,47.08
2022-12-23T06:24:22.209Z,46.30
2022-12-23T06:26:53.360Z,52.70
2022-12-23T06:29:23.114Z,51.75
2022-12-23T06:31:49.636Z,50.33
2022-12-23T06:34:16.195Z,51.70
2022-12-23T06:36:42.739Z,52.42
2022-12-23T06:39:09.819Z,49.10
2022-12-23T06:41:36.577Z,57.95
2022-12-23T06:44:03.040Z,48.30
2022-12-23T06:46:29.568Z,72.13
2022-12-23T06:48:56.152Z,75.15
2022-12-23T06:51:22.640Z,57.92
2022-12-23T06:53:49.138Z,51.15
2022-12-23T06:56:15.640Z,51.08
2022-12-23T06:58:42.113Z,58.20
2022-12-23T07:01:10.103Z,48.63
2022-12-23T07:03:36.883Z,47.15
2022-12-23T07:06:03.670Z,58.13
2022-12-23T07:08:30.243Z,44.75
2022-12-23T07:11:00.583Z,39.03
2022-12-23T07:13:27.270Z,41.50
2022-12-23T07:15:53.686Z,40.88
2022-12-23T07:18:21.467Z,44.20
2022-12-23T07:20:47.910Z,42.75
2022-12-23T07:23:14.781Z,43.75
2022-12-23T07:25:41.243Z,40.03
2022-12-23T07:28:07.738Z,47.75
2022-12-23T07:30:34.262Z,49.55
2022-12-23T07:33:00.760Z,61.40
2022-12-23T07:35:27.275Z,51.55
2022-12-23T07:37:55.653Z,61.08
2022-12-23T07:40:22.924Z,52.22
2022-12-23T07:42:50.186Z,51.03
2022-12-23T07:45:16.781Z,51.25
2022-12-23T07:47:43.254Z,46.13
2022-12-23T07:50:09.962Z,40.88
2022-12-23T07:52:36.398Z,36.20
2022-12-23T07:55:02.892Z,39.20
2022-12-23T07:57:29.600Z,34.78
2022-12-23T07:59:56.126Z,33.40
2022-12-23T08:02:25.291Z,32.72
2022-12-23T08:04:52.028Z,33.92
2022-12-23T08:07:18.577Z,31.63
2022-12-23T08:09:45.091Z,35.25
2022-12-23T08:12:11.516Z,27.38
2022-12-23T15:19:54.384Z,97.57
2022-12-23T15:22:30.394Z,104.90
2022-12-23T15:25:00.079Z,144.05
2022-12-23T15:27:29.619Z,99.28
2022-12-23T15:29:57.322Z,93.68
2022-12-23T15:32:25.335Z,104.03
2022-12-23T15:34:52.596Z,144.18
2022-12-23T15:37:22.991Z,107.18
2022-12-23T15:39:55.235Z,711.25
2022-12-23T15:42:32.000Z,348.15
2022-12-23T15:44:58.713Z,774.03
2022-12-23T15:47:25.900Z,703.65
2022-12-23T15:49:52.399Z,877.45
2022-12-23T15:52:20.601Z,737.60
2022-12-23T15:54:56.990Z,419.13
2022-12-23T15:57:25.947Z,439.45
2022-12-23T15:59:53.431Z,393.25
2022-12-23T16:02:58.846Z,351.70
2022-12-23T16:07:41.164Z,638.47
2022-12-23T16:10:15.981Z,564.05
2022-12-23T16:12:43.245Z,365.38
2022-12-23T16:15:19.934Z,204.43
2022-12-23T16:17:46.414Z,193.85
2022-12-23T16:20:17.024Z,142.32
2022-12-23T16:22:45.146Z,115.55
2022-12-23T16:25:25.378Z,97.45
2022-12-23T16:27:54.542Z,102.43
2022-12-23T16:30:22.507Z,103.22
2022-12-23T16:32:55.304Z,107.60
2022-12-23T16:35:24.953Z,93.70
2022-12-23T16:37:52.340Z,98.97
2022-12-23T16:40:19.565Z,92.72
2022-12-23T16:42:46.655Z,98.35
2022-12-23T16:45:13.704Z,89.20
2022-12-23T16:47:42.367Z,89.55
2022-12-23T16:50:11.899Z,90.93
2022-12-23T16:52:39.066Z,88.20
2022-12-23T16:55:12.112Z,88.15
2022-12-23T16:57:39.481Z,89.88
2022-12-23T17:00:06.491Z,107.88
2022-12-23T17:02:36.011Z,105.13
2022-12-23T17:05:02.669Z,101.35
2022-12-23T17:07:30.929Z,163.55
2022-12-23T17:09:57.367Z,933.13
2022-12-23T17:12:24.511Z,1170.45
2022-12-23T17:14:51.058Z,1066.70
2022-12-23T17:17:18.276Z,563.03
2022-12-23T17:19:44.756Z,356.92
2022-12-23T17:22:14.345Z,255.95
2022-12-23T17:24:40.824Z,184.48
2022-12-23T17:27:15.855Z,131.63
2022-12-23T17:29:42.414Z,124.03
2022-12-23T17:32:12.783Z,109.20
2022-12-23T17:34:40.944Z,94.60
2022-12-23T17:37:19.438Z,84.68
2022-12-23T17:39:47.222Z,100.80
2022-12-23T17:42:24.979Z,98.95
2022-12-23T17:44:52.958Z,88.53
2022-12-23T17:47:21.409Z,81.43
2022-12-23T17:49:49.219Z,79.68
2022-12-23T17:52:16.905Z,97.22
2022-12-23T17:54:45.911Z,87.00
2022-12-23T17:57:18.229Z,100.95
2022-12-23T17:59:47.902Z,88.65
2022-12-23T18:02:28.273Z,87.40
2022-12-23T18:04:55.572Z,78.78
2022-12-23T18:07:22.123Z,81.78
2022-12-23T18:09:48.715Z,74.60
2022-12-23T18:12:25.087Z,79.50
2022-12-23T18:14:51.999Z,83.15
2022-12-23T18:17:19.368Z,81.70
2022-12-23T18:19:45.937Z,71.68
2022-12-23T18:22:21.506Z,76.18
2022-12-23T18:24:55.282Z,96.10
2022-12-23T18:27:25.956Z,86.45
2022-12-23T18:29:52.485Z,92.60
2022-12-23T18:32:26.842Z,73.70
2022-12-23T18:34:54.173Z,69.88
2022-12-23T18:37:21.389Z,64.85
2022-12-23T18:39:49.213Z,66.28
2022-12-23T18:42:17.137Z,60.03
2022-12-23T18:44:45.845Z,58.03
2022-12-23T18:47:12.329Z,59.55
2022-12-23T18:49:39.542Z,59.83
2022-12-23T18:52:08.111Z,59.13
2022-12-23T18:54:35.397Z,52.75
2022-12-23T18:57:02.080Z,57.08
2022-12-23T18:59:30.183Z,55.20
2022-12-23T19:01:58.106Z,53.15
2022-12-23T19:04:24.965Z,50.13
2022-12-23T19:06:53.832Z,57.40
2022-12-23T19:09:21.317Z,52.80
2022-12-23T19:11:49.828Z,48.05
2022-12-23T19:14:16.527Z,44.95
2022-12-23T19:16:49.242Z,45.10
2022-12-23T19:19:18.639Z,56.95
2022-12-23T19:21:45.828Z,53.03
2022-12-23T19:24:13.402Z,46.75
2022-12-23T19:26:39.982Z,43.45
2022-12-23T19:29:07.375Z,44.60
2022-12-23T19:31:34.436Z,47.30
2022-12-23T19:34:01.957Z,44.22
2022-12-23T19:36:28.525Z,48.92
2022-12-23T19:38:57.295Z,44.05
2022-12-23T19:41:23.880Z,48.53
2022-12-23T19:43:50.420Z,51.00
2022-12-23T19:46:17.721Z,44.03
2022-12-23T19:48:49.216Z,45.92
2022-12-23T19:51:16.866Z,47.67
2022-12-23T19:53:44.756Z,45.03
2022-12-23T19:56:13.448Z,39.88
2022-12-23T19:58:41.124Z,41.30
2022-12-23T20:01:10.055Z,44.17
2022-12-23T20:03:36.934Z,37.92
2022-12-23T20:06:06.780Z,35.80
2022-12-23T20:08:33.988Z,39.55
2022-12-23T20:11:05.072Z,37.20
2022-12-23T20:13:31.666Z,33.92
2022-12-23T20:15:58.298Z,35.53
2022-12-23T20:18:25.829Z,37.00
2022-12-23T20:20:53.051Z,36.60
2022-12-23T20:23:21.120Z,38.22
2022-12-23T20:25:47.616Z,35.47
2022-12-23T20:28:15.889Z,32.88
2022-12-23T20:30:42.566Z,34.20
2022-12-23T20:33:10.398Z,40.65
2022-12-23T20:35:37.106Z,39.72
2022-12-23T20:38:03.921Z,38.55
2022-12-23T20:40:31.148Z,36.47
2022-12-23T20:42:58.353Z,36.72
2022-12-23T20:45:28.311Z,35.60
2022-12-23T20:47:54.710Z,34.10
2022-12-23T20:50:22.780Z,33.33
2022-12-23T20:52:49.192Z,34.70
2022-12-23T20:55:16.442Z,43.97
2022-12-23T20:57:44.163Z,54.85
2022-12-23T21:00:10.898Z,45.38
2022-12-23T21:02:38.150Z,37.28
2022-12-23T21:05:04.858Z,40.47
2022-12-23T21:07:32.201Z,40.45
2022-12-23T21:09:58.681Z,36.35
2022-12-23T21:12:25.424Z,34.78
2022-12-23T21:14:53.690Z,38.30
2022-12-23T21:17:21.245Z,32.90
2022-12-23T21:19:48.626Z,33.40
2022-12-23T21:22:15.874Z,39.65
2022-12-23T21:24:43.870Z,31.63
2022-12-23T21:27:10.473Z,33.85
2022-12-23T21:29:37.649Z,37.97
2022-12-23T21:32:04.217Z,32.15
2022-12-23T21:34:30.730Z,29.58
2022-12-23T21:36:58.005Z,30.05
2022-12-23T21:39:24.550Z,32.53
2022-12-23T21:41:52.186Z,32.55
2022-12-23T21:44:18.630Z,24.58
2022-12-23T21:46:45.253Z,30.85
2022-12-23T21:49:12.662Z,28.10
2022-12-23T21:51:41.103Z,29.45
2022-12-23T21:54:09.914Z,27.42
2022-12-23T21:56:36.495Z,26.10
2022-12-23T21:59:07.038Z,26.73
2022-12-23T22:01:34.695Z,27.15
2022-12-23T22:04:01.156Z,27.98
2022-12-23T22:06:30.025Z,25.17
2022-12-23T22:08:56.988Z,23.50
2022-12-23T22:11:26.115Z,23.05
2022-12-23T22:13:53.208Z,28.10
2022-12-23T22:16:23.203Z,23.15
2022-12-23T22:18:49.970Z,20.33
2022-12-23T22:21:18.993Z,22.08
2022-12-23T22:23:47.329Z,18.48
2022-12-23T22:26:18.843Z,25.38
2022-12-23T22:28:51.501Z,19.48
2022-12-23T22:31:19.673Z,20.20
2022-12-23T22:33:46.214Z,21.08
2022-12-23T22:36:14.841Z,22.50
2022-12-23T22:38:41.725Z,22.10
2022-12-23T22:41:09.479Z,19.42
2022-12-23T22:43:35.951Z,24.17
2022-12-23T22:46:03.141Z,27.58
2022-12-23T22:48:31.001Z,35.08
2022-12-23T22:51:04.319Z,36.03
2022-12-23T22:53:31.590Z,47.28
2022-12-23T22:55:59.149Z,38.78
2022-12-23T22:58:26.285Z,42.20
2022-12-23T23:00:53.602Z,37.80
2022-12-23T23:03:20.486Z,37.65
2022-12-23T23:06:04.213Z,33.92
2022-12-23T23:08:31.175Z,25.65
2022-12-23T23:10:58.493Z,30.00
2022-12-23T23:13:26.791Z,23.65
2022-12-23T23:15:54.557Z,30.20
2022-12-23T23:18:21.078Z,35.33
2022-12-23T23:20:47.676Z,33.92
2022-12-23T23:23:14.771Z,37.05
2022-12-23T23:25:41.641Z,37.97
2022-12-23T23:28:08.176Z,30.50
2022-12-23T23:30:34.985Z,39.05
2022-12-23T23:33:01.454Z,40.17
2022-12-23T23:35:27.886Z,45.10
2022-12-23T23:37:54.411Z,51.78
2022-12-23T23:40:20.944Z,47.17
2022-12-23T23:42:47.499Z,70.38
2022-12-23T23:45:14.652Z,71.47
2022-12-23T23:47:41.147Z,59.40
2022-12-23T23:50:08.874Z,64.45
2022-12-23T23:52:35.416Z,71.05
2022-12-23T23:55:02.173Z,68.95
2022-12-23T23:57:29.008Z,71.47
2022-12-23T23:59:55.597Z,77.00
